sensor_id;sensor_type;location;lat;lon;timestamp;P1;durP1;ratioP1;P2;durP2;ratioP2
22378;SDS011;11357;49.990;7.370;2023-04-24T00:01:41;1999.90;;;891.80;;
22378;SDS011;11357;49.990;7.370;2023-04-24T00:04:07;1999.90;;;879.20;;
22378;SDS011;11357;49.990;7.370;2023-04-24T00:06:36;1999.90;;;919.47;;
22378;SDS011;11357;49.990;7.370;2023-04-24T00:09:02;1999.90;;;935.20;;
22378;SDS011;11357;49.990;7.370;2023-04-24T00:11:29;1999.90;;;932.67;;
22378;SDS011;11357;49.990;7.370;2023-04-24T00:13:55;1999.90;;;798.37;;
22378;SDS011;11357;49.990;7.370;2023-04-24T00:16:22;1999.90;;;939.43;;
22378;SDS011;11357;49.990;7.370;2023-04-24T00:18:48;1999.90;;;948.97;;
22378;SDS011;11357;49.990;7.370;2023-04-24T00:21:14;1999.90;;;831.83;;
22378;SDS011;11357;49.990;7.370;2023-04-24T00:23:42;1999.90;;;802.83;;
22378;SDS011;11357;49.990;7.370;2023-04-24T00:26:08;1999.90;;;896.57;;
22378;SDS011;11357;49.990;7.370;2023-04-24T00:28:34;1999.90;;;880.50;;
22378;SDS011;11357;49.990;7.370;2023-04-24T00:31:00;1999.90;;;716.53;;
22378;SDS011;11357;49.990;7.370;2023-04-24T00:33:26;1999.90;;;814.77;;
22378;SDS011;11357;49.990;7.370;2023-04-24T00:35:51;1999.90;;;699.27;;
22378;SDS011;11357;49.990;7.370;2023-04-24T00:38:17;1999.90;;;701.33;;
22378;SDS011;11357;49.990;7.370;2023-04-24T00:40:43;1999.90;;;729.90;;
22378;SDS011;11357;49.990;7.370;2023-04-24T00:43:09;1999.90;;;770.23;;
22378;SDS011;11357;49.990;7.370;2023-04-24T00:45:35;1999.90;;;682.33;;
22378;SDS011;11357;49.990;7.370;2023-04-24T00:48:01;1999.90;;;840.73;;
22378;SDS011;11357;49.990;7.370;2023-04-24T00:50:27;1999.90;;;878.50;;
22378;SDS011;11357;49.990;7.370;2023-04-24T00:52:54;1999.90;;;846.10;;
22378;SDS011;11357;49.990;7.370;2023-04-24T00:55:20;1999.90;;;871.87;;
22378;SDS011;11357;49.990;7.370;2023-04-24T00:57:45;1999.90;;;844.07;;
22378;SDS011;11357;49.990;7.370;2023-04-24T01:00:12;1604.03;;;322.13;;
22378;SDS011;11357;49.990;7.370;2023-04-24T01:02:40;1999.90;;;875.23;;
22378;SDS011;11357;49.990;7.370;2023-04-24T01:05:10;1999.90;;;717.47;;
22378;SDS011;11357;49.990;7.370;2023-04-24T01:07:40;1999.90;;;806.13;;
22378;SDS011;11357;49.990;7.370;2023-04-24T01:10:10;1999.90;;;852.17;;
22378;SDS011;11357;49.990;7.370;2023-04-24T01:12:38;1999.90;;;892.20;;
22378;SDS011;11357;49.990;7.370;2023-04-24T01:15:04;1999.90;;;670.50;;
22378;SDS011;11357;49.990;7.370;2023-04-24T01:17:31;1999.90;;;818.63;;
22378;SDS011;11357;49.990;7.370;2023-04-24T01:19:57;1999.90;;;775.60;;
22378;SDS011;11357;49.990;7.370;2023-04-24T01:22:25;1999.90;;;743.10;;
22378;SDS011;11357;49.990;7.370;2023-04-24T01:24:51;1768.17;;;534.77;;
22378;SDS011;11357;49.990;7.370;2023-04-24T01:27:17;1999.90;;;761.53;;
22378;SDS011;11357;49.990;7.370;2023-04-24T01:29:44;1999.90;;;773.87;;
22378;SDS011;11357;49.990;7.370;2023-04-24T01:32:10;1999.90;;;764.33;;
22378;SDS011;11357;49.990;7.370;2023-04-24T01:34:36;1999.90;;;737.23;;
22378;SDS011;11357;49.990;7.370;2023-04-24T01:37:02;1999.90;;;713.10;;
22378;SDS011;11357;49.990;7.370;2023-04-24T01:39:28;1999.90;;;769.27;;
22378;SDS011;11357;49.990;7.370;2023-04-24T01:41:54;1999.90;;;706.40;;
22378;SDS011;11357;49.990;7.370;2023-04-24T01:44:20;1999.90;;;716.33;;
22378;SDS011;11357;49.990;7.370;2023-04-24T01:46:46;1999.90;;;659.60;;
22378;SDS011;11357;49.990;7.370;2023-04-24T01:49:12;1988.93;;;614.67;;
22378;SDS011;11357;49.990;7.370;2023-04-24T01:51:38;1999.90;;;841.53;;
22378;SDS011;11357;49.990;7.370;2023-04-24T01:54:04;1568.47;;;375.10;;
22378;SDS011;11357;49.990;7.370;2023-04-24T01:56:30;1868.07;;;806.07;;
22378;SDS011;11357;49.990;7.370;2023-04-24T01:58:59;1866.47;;;780.40;;
22378;SDS011;11357;49.990;7.370;2023-04-24T02:01:27;1999.90;;;536.53;;
22378;SDS011;11357;49.990;7.370;2023-04-24T02:03:59;1177.93;;;518.63;;
22378;SDS011;11357;49.990;7.370;2023-04-24T02:06:25;1999.90;;;999.90;;
22378;SDS011;11357;49.990;7.370;2023-04-24T02:08:51;1999.90;;;619.47;;
22378;SDS011;11357;49.990;7.370;2023-04-24T02:11:17;1999.90;;;999.90;;
22378;SDS011;11357;49.990;7.370;2023-04-24T02:13:43;1999.90;;;999.90;;
22378;SDS011;11357;49.990;7.370;2023-04-24T02:16:09;1713.07;;;470.17;;
22378;SDS011;11357;49.990;7.370;2023-04-24T02:18:35;1702.57;;;635.30;;
22378;SDS011;11357;49.990;7.370;2023-04-24T02:21:01;1999.90;;;999.90;;
22378;SDS011;11357;49.990;7.370;2023-04-24T02:23:26;1999.90;;;999.90;;
22378;SDS011;11357;49.990;7.370;2023-04-24T02:25:52;1999.90;;;999.90;;
22378;SDS011;11357;49.990;7.370;2023-04-24T02:28:18;1999.90;;;999.90;;
22378;SDS011;11357;49.990;7.370;2023-04-24T02:30:44;1833.43;;;816.33;;
22378;SDS011;11357;49.990;7.370;2023-04-24T02:33:10;1896.53;;;827.20;;
22378;SDS011;11357;49.990;7.370;2023-04-24T02:35:36;1999.90;;;999.90;;
22378;SDS011;11357;49.990;7.370;2023-04-24T02:38:02;1999.90;;;999.90;;
22378;SDS011;11357;49.990;7.370;2023-04-24T02:40:28;1999.90;;;999.90;;
22378;SDS011;11357;49.990;7.370;2023-04-24T02:42:54;1381.00;;;587.00;;
22378;SDS011;11357;49.990;7.370;2023-04-24T02:45:20;1999.90;;;999.90;;
22378;SDS011;11357;49.990;7.370;2023-04-24T02:47:45;1999.90;;;999.90;;
22378;SDS011;11357;49.990;7.370;2023-04-24T02:50:11;1999.90;;;999.90;;
22378;SDS011;11357;49.990;7.370;2023-04-24T02:52:36;1999.90;;;607.70;;
22378;SDS011;11357;49.990;7.370;2023-04-24T02:55:02;1999.90;;;999.90;;
22378;SDS011;11357;49.990;7.370;2023-04-24T02:57:28;1964.40;;;825.10;;
22378;SDS011;11357;49.990;7.370;2023-04-24T02:59:54;1999.90;;;853.67;;
22378;SDS011;11357;49.990;7.370;2023-04-24T03:02:19;1999.90;;;999.90;;
22378;SDS011;11357;49.990;7.370;2023-04-24T03:04:45;1999.90;;;898.37;;
22378;SDS011;11357;49.990;7.370;2023-04-24T03:07:13;1999.90;;;871.97;;
22378;SDS011;11357;49.990;7.370;2023-04-24T03:09:39;1038.90;;;689.23;;
22378;SDS011;11357;49.990;7.370;2023-04-24T03:12:05;1471.60;;;780.77;;
22378;SDS011;11357;49.990;7.370;2023-04-24T03:14:31;1070.13;;;712.70;;
22378;SDS011;11357;49.990;7.370;2023-04-24T03:16:57;675.17;;;609.17;;
22378;SDS011;11357;49.990;7.370;2023-04-24T03:19:23;570.23;;;511.60;;
22378;SDS011;11357;49.990;7.370;2023-04-24T03:21:48;603.47;;;541.97;;
22378;SDS011;11357;49.990;7.370;2023-04-24T03:24:14;1130.77;;;715.33;;
22378;SDS011;11357;49.990;7.370;2023-04-24T03:26:40;804.30;;;627.43;;
22378;SDS011;11357;49.990;7.370;2023-04-24T03:29:06;693.30;;;588.93;;
22378;SDS011;11357;49.990;7.370;2023-04-24T03:31:31;596.77;;;538.80;;
22378;SDS011;11357;49.990;7.370;2023-04-24T03:33:57;661.33;;;591.50;;
22378;SDS011;11357;49.990;7.370;2023-04-24T03:36:23;847.70;;;646.97;;
22378;SDS011;11357;49.990;7.370;2023-04-24T03:38:48;966.60;;;673.97;;
22378;SDS011;11357;49.990;7.370;2023-04-24T03:41:14;1400.73;;;730.67;;
22378;SDS011;11357;49.990;7.370;2023-04-24T03:43:40;1266.03;;;726.97;;
22378;SDS011;11357;49.990;7.370;2023-04-24T03:46:05;1253.50;;;733.63;;
22378;SDS011;11357;49.990;7.370;2023-04-24T03:48:34;1521.33;;;726.67;;
22378;SDS011;11357;49.990;7.370;2023-04-24T03:51:00;1569.80;;;683.57;;
22378;SDS011;11357;49.990;7.370;2023-04-24T03:53:25;1905.07;;;724.90;;
22378;SDS011;11357;49.990;7.370;2023-04-24T03:55:52;1826.97;;;857.63;;
22378;SDS011;11357;49.990;7.370;2023-04-24T03:58:18;1332.93;;;778.87;;
22378;SDS011;11357;49.990;7.370;2023-04-24T04:00:44;1634.73;;;743.83;;
22378;SDS011;11357;49.990;7.370;2023-04-24T04:03:11;1471.37;;;717.67;;
22378;SDS011;11357;49.990;7.370;2023-04-24T04:05:38;1262.00;;;717.13;;
22378;SDS011;11357;49.990;7.370;2023-04-24T04:08:03;1646.77;;;756.27;;
22378;SDS011;11357;49.990;7.370;2023-04-24T04:10:29;1477.50;;;673.70;;
22378;SDS011;11357;49.990;7.370;2023-04-24T04:12:54;1809.47;;;859.30;;
22378;SDS011;11357;49.990;7.370;2023-04-24T04:15:20;1886.40;;;749.03;;
22378;SDS011;11357;49.990;7.370;2023-04-24T04:17:46;1183.23;;;691.60;;
22378;SDS011;11357;49.990;7.370;2023-04-24T04:20:12;694.80;;;513.30;;
22378;SDS011;11357;49.990;7.370;2023-04-24T04:22:38;1078.47;;;737.33;;
22378;SDS011;11357;49.990;7.370;2023-04-24T04:25:04;1323.33;;;610.20;;
22378;SDS011;11357;49.990;7.370;2023-04-24T04:27:30;1568.03;;;717.50;;
22378;SDS011;11357;49.990;7.370;2023-04-24T04:30:00;1766.63;;;831.63;;
22378;SDS011;11357;49.990;7.370;2023-04-24T04:32:29;1444.53;;;768.83;;
22378;SDS011;11357;49.990;7.370;2023-04-24T04:35:01;1704.73;;;809.77;;
22378;SDS011;11357;49.990;7.370;2023-04-24T04:37:30;1726.37;;;707.50;;
22378;SDS011;11357;49.990;7.370;2023-04-24T04:39:56;1965.33;;;784.83;;
22378;SDS011;11357;49.990;7.370;2023-04-24T04:42:25;1923.67;;;847.70;;
22378;SDS011;11357;49.990;7.370;2023-04-24T04:44:52;1743.87;;;781.33;;
22378;SDS011;11357;49.990;7.370;2023-04-24T04:47:18;1978.07;;;864.33;;
22378;SDS011;11357;49.990;7.370;2023-04-24T04:49:47;1970.67;;;782.87;;
22378;SDS011;11357;49.990;7.370;2023-04-24T04:52:13;1978.13;;;881.63;;
22378;SDS011;11357;49.990;7.370;2023-04-24T04:54:39;1983.60;;;893.97;;
22378;SDS011;11357;49.990;7.370;2023-04-24T04:57:05;1357.30;;;720.40;;
22378;SDS011;11357;49.990;7.370;2023-04-24T04:59:31;1629.43;;;740.77;;
22378;SDS011;11357;49.990;7.370;2023-04-24T05:01:56;1713.33;;;732.93;;
22378;SDS011;11357;49.990;7.370;2023-04-24T05:04:22;1220.67;;;660.87;;
22378;SDS011;11357;49.990;7.370;2023-04-24T05:06:47;1974.30;;;867.00;;
22378;SDS011;11357;49.990;7.370;2023-04-24T05:09:13;1892.43;;;810.10;;
22378;SDS011;11357;49.990;7.370;2023-04-24T05:11:39;1310.47;;;655.57;;
22378;SDS011;11357;49.990;7.370;2023-04-24T05:14:04;1485.53;;;718.60;;
22378;SDS011;11357;49.990;7.370;2023-04-24T05:16:30;583.87;;;527.27;;
22378;SDS011;11357;49.990;7.370;2023-04-24T05:18:56;1043.33;;;652.67;;
22378;SDS011;11357;49.990;7.370;2023-04-24T05:21:21;1217.43;;;689.40;;
22378;SDS011;11357;49.990;7.370;2023-04-24T05:23:47;1444.63;;;716.27;;
22378;SDS011;11357;49.990;7.370;2023-04-24T05:26:13;990.77;;;680.53;;
22378;SDS011;11357;49.990;7.370;2023-04-24T05:28:39;935.97;;;698.33;;
22378;SDS011;11357;49.990;7.370;2023-04-24T05:31:05;1266.63;;;719.10;;
22378;SDS011;11357;49.990;7.370;2023-04-24T05:33:31;1230.87;;;704.30;;
22378;SDS011;11357;49.990;7.370;2023-04-24T05:35:57;1076.33;;;747.67;;
22378;SDS011;11357;49.990;7.370;2023-04-24T05:38:22;1571.40;;;781.77;;
22378;SDS011;11357;49.990;7.370;2023-04-24T05:40:48;1409.87;;;770.27;;
22378;SDS011;11357;49.990;7.370;2023-04-24T05:43:14;949.43;;;705.70;;
22378;SDS011;11357;49.990;7.370;2023-04-24T05:45:40;717.70;;;520.43;;
22378;SDS011;11357;49.990;7.370;2023-04-24T05:48:05;152.07;;;138.07;;
22378;SDS011;11357;49.990;7.370;2023-04-24T05:50:31;841.80;;;585.27;;
22378;SDS011;11357;49.990;7.370;2023-04-24T05:52:57;807.90;;;546.83;;
22378;SDS011;11357;49.990;7.370;2023-04-24T05:55:27;497.67;;;439.20;;
22378;SDS011;11357;49.990;7.370;2023-04-24T05:57:52;86.20;;;78.40;;
22378;SDS011;11357;49.990;7.370;2023-04-24T06:00:18;1093.50;;;719.43;;
22378;SDS011;11357;49.990;7.370;2023-04-24T06:02:45;1477.70;;;750.37;;
22378;SDS011;11357;49.990;7.370;2023-04-24T06:05:11;359.67;;;266.30;;
22378;SDS011;11357;49.990;7.370;2023-04-24T06:07:37;1369.83;;;678.97;;
22378;SDS011;11357;49.990;7.370;2023-04-24T06:10:02;787.30;;;667.93;;
22378;SDS011;11357;49.990;7.370;2023-04-24T06:12:28;1294.33;;;682.40;;
22378;SDS011;11357;49.990;7.370;2023-04-24T06:14:54;1489.60;;;739.13;;
22378;SDS011;11357;49.990;7.370;2023-04-24T06:17:22;1429.80;;;730.60;;
22378;SDS011;11357;49.990;7.370;2023-04-24T06:19:48;1178.03;;;709.00;;
22378;SDS011;11357;49.990;7.370;2023-04-24T06:22:14;938.53;;;666.97;;
22378;SDS011;11357;49.990;7.370;2023-04-24T06:24:40;591.23;;;412.03;;
22378;SDS011;11357;49.990;7.370;2023-04-24T06:27:05;593.30;;;513.97;;
22378;SDS011;11357;49.990;7.370;2023-04-24T06:29:32;389.33;;;355.83;;
22378;SDS011;11357;49.990;7.370;2023-04-24T06:31:58;68.70;;;64.13;;
22378;SDS011;11357;49.990;7.370;2023-04-24T06:34:24;381.83;;;352.63;;
22378;SDS011;11357;49.990;7.370;2023-04-24T06:36:49;113.30;;;105.67;;
22378;SDS011;11357;49.990;7.370;2023-04-24T06:39:15;302.37;;;278.67;;
22378;SDS011;11357;49.990;7.370;2023-04-24T06:41:41;441.60;;;407.50;;
22378;SDS011;11357;49.990;7.370;2023-04-24T06:44:07;307.37;;;283.63;;
22378;SDS011;11357;49.990;7.370;2023-04-24T06:46:32;356.40;;;331.63;;
22378;SDS011;11357;49.990;7.370;2023-04-24T06:48:58;363.47;;;336.80;;
22378;SDS011;11357;49.990;7.370;2023-04-24T06:51:24;62.97;;;58.87;;
22378;SDS011;11357;49.990;7.370;2023-04-24T06:53:53;228.03;;;212.73;;
22378;SDS011;11357;49.990;7.370;2023-04-24T06:56:21;127.67;;;119.87;;
22378;SDS011;11357;49.990;7.370;2023-04-24T06:58:47;255.43;;;237.87;;
22378;SDS011;11357;49.990;7.370;2023-04-24T07:01:13;497.70;;;452.30;;
22378;SDS011;11357;49.990;7.370;2023-04-24T07:03:39;448.27;;;410.47;;
22378;SDS011;11357;49.990;7.370;2023-04-24T07:16:35;173.70;;;162.17;;
22378;SDS011;11357;49.990;7.370;2023-04-24T07:19:01;50.53;;;47.53;;
22378;SDS011;11357;49.990;7.370;2023-04-24T07:21:26;99.97;;;93.87;;
22378;SDS011;11357;49.990;7.370;2023-04-24T07:23:52;201.10;;;188.67;;
22378;SDS011;11357;49.990;7.370;2023-04-24T07:36:40;676.73;;;564.13;;
22378;SDS011;11357;49.990;7.370;2023-04-24T07:39:06;717.70;;;539.90;;
22378;SDS011;11357;49.990;7.370;2023-04-24T07:41:33;405.87;;;375.70;;
22378;SDS011;11357;49.990;7.370;2023-04-24T07:43:59;384.27;;;348.77;;
22378;SDS011;11357;49.990;7.370;2023-04-24T07:51:35;381.73;;;347.27;;
22378;SDS011;11357;49.990;7.370;2023-04-24T07:54:03;279.10;;;257.67;;
22378;SDS011;11357;49.990;7.370;2023-04-24T08:01:41;721.97;;;546.47;;
22378;SDS011;11357;49.990;7.370;2023-04-24T08:04:07;315.90;;;282.63;;
22378;SDS011;11357;49.990;7.370;2023-04-24T08:06:33;1023.37;;;606.03;;
22378;SDS011;11357;49.990;7.370;2023-04-24T08:08:59;1241.47;;;463.70;;
22378;SDS011;11357;49.990;7.370;2023-04-24T08:11:25;1484.23;;;687.77;;
22378;SDS011;11357;49.990;7.370;2023-04-24T08:13:51;1608.63;;;722.53;;
22378;SDS011;11357;49.990;7.370;2023-04-24T08:16:17;1812.93;;;643.10;;
22378;SDS011;11357;49.990;7.370;2023-04-24T08:18:43;1069.43;;;530.30;;
22378;SDS011;11357;49.990;7.370;2023-04-24T08:21:08;986.73;;;570.37;;
22378;SDS011;11357;49.990;7.370;2023-04-24T08:23:34;1626.43;;;804.07;;
22378;SDS011;11357;49.990;7.370;2023-04-24T08:26:00;1249.60;;;444.37;;
22378;SDS011;11357;49.990;7.370;2023-04-24T08:28:25;1186.60;;;658.70;;
22378;SDS011;11357;49.990;7.370;2023-04-24T08:30:51;1347.23;;;633.87;;
22378;SDS011;11357;49.990;7.370;2023-04-24T08:33:20;1532.23;;;671.10;;
22378;SDS011;11357;49.990;7.370;2023-04-24T08:35:46;822.03;;;477.73;;
22378;SDS011;11357;49.990;7.370;2023-04-24T08:38:12;1539.70;;;764.17;;
22378;SDS011;11357;49.990;7.370;2023-04-24T08:40:38;1129.47;;;582.43;;
22378;SDS011;11357;49.990;7.370;2023-04-24T08:43:04;689.33;;;601.70;;
22378;SDS011;11357;49.990;7.370;2023-04-24T08:45:30;1138.13;;;716.53;;
22378;SDS011;11357;49.990;7.370;2023-04-24T08:47:58;732.07;;;620.80;;
22378;SDS011;11357;49.990;7.370;2023-04-24T08:50:25;558.90;;;486.70;;
22378;SDS011;11357;49.990;7.370;2023-04-24T08:52:52;1623.20;;;717.50;;
22378;SDS011;11357;49.990;7.370;2023-04-24T08:55:19;1574.30;;;754.17;;
22378;SDS011;11357;49.990;7.370;2023-04-24T08:57:46;994.00;;;580.43;;
22378;SDS011;11357;49.990;7.370;2023-04-24T09:00:16;1999.90;;;999.90;;
22378;SDS011;11357;49.990;7.370;2023-04-24T09:02:43;1985.60;;;749.77;;
22378;SDS011;11357;49.990;7.370;2023-04-24T09:05:10;1347.00;;;630.47;;
22378;SDS011;11357;49.990;7.370;2023-04-24T09:07:37;1182.43;;;690.50;;
22378;SDS011;11357;49.990;7.370;2023-04-24T09:10:07;1898.90;;;723.73;;
22378;SDS011;11357;49.990;7.370;2023-04-24T09:12:34;1067.47;;;491.03;;
22378;SDS011;11357;49.990;7.370;2023-04-24T09:15:00;1550.27;;;654.53;;
22378;SDS011;11357;49.990;7.370;2023-04-24T09:17:28;1978.77;;;852.87;;
22378;SDS011;11357;49.990;7.370;2023-04-24T09:19:55;1999.90;;;560.53;;
22378;SDS011;11357;49.990;7.370;2023-04-24T09:22:21;1999.90;;;999.90;;
22378;SDS011;11357;49.990;7.370;2023-04-24T09:24:47;1368.63;;;723.40;;
22378;SDS011;11357;49.990;7.370;2023-04-24T09:27:13;1761.67;;;814.07;;
22378;SDS011;11357;49.990;7.370;2023-04-24T09:30:02;1999.90;;;999.90;;
22378;SDS011;11357;49.990;7.370;2023-04-24T09:32:27;1999.90;;;843.93;;
22378;SDS011;11357;49.990;7.370;2023-04-24T09:35:14;1999.90;;;841.57;;
22378;SDS011;11357;49.990;7.370;2023-04-24T09:37:45;1999.90;;;999.90;;
22378;SDS011;11357;49.990;7.370;2023-04-24T09:40:15;1835.20;;;621.93;;
22378;SDS011;11357;49.990;7.370;2023-04-24T09:42:53;1999.90;;;999.90;;
22378;SDS011;11357;49.990;7.370;2023-04-24T09:45:44;1999.90;;;999.90;;
22378;SDS011;11357;49.990;7.370;2023-04-24T09:48:10;1999.90;;;999.90;;
22378;SDS011;11357;49.990;7.370;2023-04-24T09:50:35;1999.90;;;999.90;;
22378;SDS011;11357;49.990;7.370;2023-04-24T09:53:03;1999.90;;;692.70;;
22378;SDS011;11357;49.990;7.370;2023-04-24T09:55:30;1999.90;;;725.07;;
22378;SDS011;11357;49.990;7.370;2023-04-24T09:57:57;1999.90;;;999.90;;
22378;SDS011;11357;49.990;7.370;2023-04-24T10:00:31;1999.90;;;999.90;;
22378;SDS011;11357;49.990;7.370;2023-04-24T10:02:59;1999.90;;;999.90;;
22378;SDS011;11357;49.990;7.370;2023-04-24T10:05:28;1999.90;;;999.90;;
22378;SDS011;11357;49.990;7.370;2023-04-24T10:10:29;1999.90;;;712.93;;
22378;SDS011;11357;49.990;7.370;2023-04-24T10:12:56;1999.90;;;909.90;;
22378;SDS011;11357;49.990;7.370;2023-04-24T10:15:22;1974.93;;;686.30;;
22378;SDS011;11357;49.990;7.370;2023-04-24T10:17:49;280.93;;;158.40;;
22378;SDS011;11357;49.990;7.370;2023-04-24T10:20:20;1999.90;;;755.73;;
22378;SDS011;11357;49.990;7.370;2023-04-24T10:22:47;590.80;;;532.50;;
22378;SDS011;11357;49.990;7.370;2023-04-24T10:25:16;447.77;;;406.00;;
22378;SDS011;11357;49.990;7.370;2023-04-24T10:27:43;1926.50;;;730.60;;
22378;SDS011;11357;49.990;7.370;2023-04-24T10:30:11;815.10;;;611.30;;
22378;SDS011;11357;49.990;7.370;2023-04-24T10:32:38;1999.90;;;800.27;;
22378;SDS011;11357;49.990;7.370;2023-04-24T10:35:04;1999.90;;;999.90;;
22378;SDS011;11357;49.990;7.370;2023-04-24T10:37:44;1999.90;;;677.30;;
22378;SDS011;11357;49.990;7.370;2023-04-24T10:40:17;1411.57;;;635.57;;
22378;SDS011;11357;49.990;7.370;2023-04-24T10:42:46;628.17;;;544.27;;
22378;SDS011;11357;49.990;7.370;2023-04-24T10:45:20;1728.27;;;530.33;;
22378;SDS011;11357;49.990;7.370;2023-04-24T10:47:57;1177.07;;;573.60;;
22378;SDS011;11357;49.990;7.370;2023-04-24T10:50:29;1999.90;;;727.33;;
22378;SDS011;11357;49.990;7.370;2023-04-24T10:53:12;1097.27;;;638.57;;
22378;SDS011;11357;49.990;7.370;2023-04-24T10:58:11;427.50;;;386.47;;
22378;SDS011;11357;49.990;7.370;2023-04-24T11:00:38;285.60;;;266.23;;
22378;SDS011;11357;49.990;7.370;2023-04-24T11:03:22;353.10;;;328.80;;
22378;SDS011;11357;49.990;7.370;2023-04-24T11:08:21;1018.63;;;654.50;;
22378;SDS011;11357;49.990;7.370;2023-04-24T11:11:01;1525.03;;;659.53;;
22378;SDS011;11357;49.990;7.370;2023-04-24T11:19:16;764.87;;;608.93;;
22378;SDS011;11357;49.990;7.370;2023-04-24T11:21:53;304.87;;;281.07;;
22378;SDS011;11357;49.990;7.370;2023-04-24T11:24:22;398.97;;;353.07;;
22378;SDS011;11357;49.990;7.370;2023-04-24T11:26:51;452.27;;;408.60;;
22378;SDS011;11357;49.990;7.370;2023-04-24T11:32:24;204.87;;;191.07;;
22378;SDS011;11357;49.990;7.370;2023-04-24T11:34:54;547.27;;;489.87;;
22378;SDS011;11357;49.990;7.370;2023-04-24T11:37:22;105.20;;;98.83;;
22378;SDS011;11357;49.990;7.370;2023-04-24T11:40:09;82.27;;;77.00;;
22378;SDS011;11357;49.990;7.370;2023-04-24T11:42:40;80.73;;;76.37;;
22378;SDS011;11357;49.990;7.370;2023-04-24T11:45:10;100.93;;;94.70;;
22378;SDS011;11357;49.990;7.370;2023-04-24T11:47:40;6.33;;;4.73;;
22378;SDS011;11357;49.990;7.370;2023-04-24T11:50:08;6.07;;;4.30;;
22378;SDS011;11357;49.990;7.370;2023-04-24T11:52:39;524.07;;;482.10;;
22378;SDS011;11357;49.990;7.370;2023-04-24T11:57:43;9.23;;;4.60;;
22378;SDS011;11357;49.990;7.370;2023-04-24T12:00:16;11.23;;;5.43;;
22378;SDS011;11357;49.990;7.370;2023-04-24T12:02:44;8.00;;;5.33;;
22378;SDS011;11357;49.990;7.370;2023-04-24T12:08:05;28.40;;;26.43;;
22378;SDS011;11357;49.990;7.370;2023-04-24T12:10:32;141.67;;;133.10;;
22378;SDS011;11357;49.990;7.370;2023-04-24T12:12:59;16.10;;;14.80;;
22378;SDS011;11357;49.990;7.370;2023-04-24T12:15:25;313.87;;;288.23;;
22378;SDS011;11357;49.990;7.370;2023-04-24T12:17:52;8.40;;;6.30;;
22378;SDS011;11357;49.990;7.370;2023-04-24T12:22:54;6.67;;;4.57;;
22378;SDS011;11357;49.990;7.370;2023-04-24T12:25:21;7.70;;;4.50;;
22378;SDS011;11357;49.990;7.370;2023-04-24T12:27:52;8.13;;;4.37;;
22378;SDS011;11357;49.990;7.370;2023-04-24T12:30:20;7.87;;;4.53;;
22378;SDS011;11357;49.990;7.370;2023-04-24T12:32:50;9.90;;;4.47;;
22378;SDS011;11357;49.990;7.370;2023-04-24T12:35:20;5.97;;;4.60;;
22378;SDS011;11357;49.990;7.370;2023-04-24T12:37:48;6.87;;;4.07;;
22378;SDS011;11357;49.990;7.370;2023-04-24T12:40:14;9.07;;;4.43;;
22378;SDS011;11357;49.990;7.370;2023-04-24T12:42:42;9.13;;;4.53;;
22378;SDS011;11357;49.990;7.370;2023-04-24T12:45:09;5.77;;;4.07;;
22378;SDS011;11357;49.990;7.370;2023-04-24T12:47:37;8.00;;;4.90;;
22378;SDS011;11357;49.990;7.370;2023-04-24T12:50:03;6.87;;;4.07;;
22378;SDS011;11357;49.990;7.370;2023-04-24T12:52:29;7.20;;;4.47;;
22378;SDS011;11357;49.990;7.370;2023-04-24T12:54:56;6.47;;;4.57;;
22378;SDS011;11357;49.990;7.370;2023-04-24T12:57:23;5.50;;;4.17;;
22378;SDS011;11357;49.990;7.370;2023-04-24T12:59:53;7.27;;;4.17;;
22378;SDS011;11357;49.990;7.370;2023-04-24T13:02:20;7.27;;;4.50;;
22378;SDS011;11357;49.990;7.370;2023-04-24T13:04:47;7.27;;;4.13;;
22378;SDS011;11357;49.990;7.370;2023-04-24T13:07:13;7.47;;;4.50;;
22378;SDS011;11357;49.990;7.370;2023-04-24T13:09:40;6.33;;;4.57;;
22378;SDS011;11357;49.990;7.370;2023-04-24T13:12:06;9.47;;;4.37;;
22378;SDS011;11357;49.990;7.370;2023-04-24T13:14:33;7.60;;;5.00;;
22378;SDS011;11357;49.990;7.370;2023-04-24T13:16:58;5.43;;;4.23;;
22378;SDS011;11357;49.990;7.370;2023-04-24T13:19:25;7.27;;;4.17;;
22378;SDS011;11357;49.990;7.370;2023-04-24T13:21:52;8.20;;;4.97;;
22378;SDS011;11357;49.990;7.370;2023-04-24T13:24:20;8.07;;;4.27;;
22378;SDS011;11357;49.990;7.370;2023-04-24T13:26:49;8.83;;;4.60;;
22378;SDS011;11357;49.990;7.370;2023-04-24T13:29:16;7.13;;;6.27;;
22378;SDS011;11357;49.990;7.370;2023-04-24T13:31:42;8.70;;;6.03;;
22378;SDS011;11357;49.990;7.370;2023-04-24T13:34:08;8.27;;;5.03;;
22378;SDS011;11357;49.990;7.370;2023-04-24T13:36:34;8.60;;;7.53;;
22378;SDS011;11357;49.990;7.370;2023-04-24T13:39:00;8.40;;;4.83;;
22378;SDS011;11357;49.990;7.370;2023-04-24T13:41:26;6.30;;;4.87;;
22378;SDS011;11357;49.990;7.370;2023-04-24T13:43:52;7.77;;;5.30;;
22378;SDS011;11357;49.990;7.370;2023-04-24T13:46:17;6.43;;;4.90;;
22378;SDS011;11357;49.990;7.370;2023-04-24T13:48:43;7.57;;;4.73;;
22378;SDS011;11357;49.990;7.370;2023-04-24T13:51:09;9.30;;;4.57;;
22378;SDS011;11357;49.990;7.370;2023-04-24T13:53:34;8.53;;;5.27;;
22378;SDS011;11357;49.990;7.370;2023-04-24T13:56:03;11.53;;;4.53;;
22378;SDS011;11357;49.990;7.370;2023-04-24T13:58:29;6.17;;;4.50;;
22378;SDS011;11357;49.990;7.370;2023-04-24T14:00:55;7.50;;;5.03;;
22378;SDS011;11357;49.990;7.370;2023-04-24T14:03:21;6.97;;;4.60;;
22378;SDS011;11357;49.990;7.370;2023-04-24T14:05:46;5.87;;;4.67;;
22378;SDS011;11357;49.990;7.370;2023-04-24T14:08:12;8.77;;;4.87;;
22378;SDS011;11357;49.990;7.370;2023-04-24T14:10:38;11.17;;;4.70;;
22378;SDS011;11357;49.990;7.370;2023-04-24T14:13:03;7.03;;;4.40;;
22378;SDS011;11357;49.990;7.370;2023-04-24T14:15:30;6.70;;;4.70;;
22378;SDS011;11357;49.990;7.370;2023-04-24T14:17:56;6.77;;;4.73;;
22378;SDS011;11357;49.990;7.370;2023-04-24T14:20:22;7.47;;;4.33;;
22378;SDS011;11357;49.990;7.370;2023-04-24T14:22:48;6.97;;;4.80;;
22378;SDS011;11357;49.990;7.370;2023-04-24T14:25:14;7.00;;;5.33;;
22378;SDS011;11357;49.990;7.370;2023-04-24T14:27:40;9.43;;;4.57;;
22378;SDS011;11357;49.990;7.370;2023-04-24T14:30:07;7.67;;;5.17;;
22378;SDS011;11357;49.990;7.370;2023-04-24T14:32:33;7.27;;;5.23;;
22378;SDS011;11357;49.990;7.370;2023-04-24T14:34:59;7.63;;;4.80;;
22378;SDS011;11357;49.990;7.370;2023-04-24T14:37:25;9.43;;;4.70;;
22378;SDS011;11357;49.990;7.370;2023-04-24T14:39:51;6.70;;;4.77;;
22378;SDS011;11357;49.990;7.370;2023-04-24T14:42:16;5.60;;;4.57;;
22378;SDS011;11357;49.990;7.370;2023-04-24T14:44:42;7.93;;;4.53;;
22378;SDS011;11357;49.990;7.370;2023-04-24T14:47:08;7.80;;;4.40;;
22378;SDS011;11357;49.990;7.370;2023-04-24T14:49:34;8.93;;;7.10;;
22378;SDS011;11357;49.990;7.370;2023-04-24T14:52:03;1999.90;;;999.90;;
22378;SDS011;11357;49.990;7.370;2023-04-24T14:54:29;1965.07;;;565.70;;